首页
METAR-TAF:

METAR-TAF

机场 :

克拉科夫, 波兰

纬度: 50-05N, 经度: 019-48E, 海拔: 237米

当前天气观测

该预报发布于40分钟前的16:30 UTC
风速9节,风向西转西南
温度 11°C
湿度 58%
气压 1016 hPa
能见度10公里或以上
1500米以下无云,无积雨云

METAR: EPKK 171630Z 25009KT CAVOK 11/03 Q1016

时间: 18:10 (17:10 UTC)

预报

该预报发布于2小时和40分钟前的14:30 UTC
预报有效从17日的 15点(UTC)到 18日的 15点(UTC)
风速12节,风向西
能见度10公里或以上
1500米以下无云,无积雨云
成为
从 17日的 15点(UTC)到 17日的 18点(UTC)
风速2节,风向西南
成为
从 17日的 21点(UTC)到 17日的 23点(UTC)
风速12节,风向西
多云层高于1400英尺
短暂存在
从 17日的 23点(UTC)到 18日的 03点(UTC)
能見度: 4000
多云层高于800英尺
阴天层高于1300英尺
成为
从 18日的 03点(UTC)到 18日的 05点(UTC)
散云层高于3000英尺
成为
从 18日的 07点(UTC)到 18日的 10点(UTC)
风速16节,风向西转西南,有时为28节阵风
短暂存在
从 18日的 10点(UTC)到 18日的 15点(UTC)
多云层高于2300英尺, 积雨云.

TAF: EPKK 171430Z 1715/1815 26012KT CAVOK BECMG 1715/1718 23002KT BECMG 1721/1723 26012KT BKN014 TEMPO 1723/1803 4000 RA BKN008 OVC013 BECMG 1803/1805 SCT030 BECMG 1807/1810 25016G28KT TEMPO 1810/1815 BKN023CB

超过4000个机场的气象观测和天气预报(METAR&TAF报告)。

可查询的气象台以黄色和红色小点在地图上表示。

将鼠标移到小点上方,可查看气象台名称。

然后点击查看天气观测和预报。

如需切换地图:点击带黑十字的绿色按钮放大地图;点击带横线的绿色按钮缩小地图;或者点击绿色箭头查看邻近地区的地图。


METAR-TAF: